Archival Weather

Half Moon Bay

Half Moon Bay, California (KHAF)

Report from: Tuesday, September 19, 2023 4:55 AM PDT
Current time: Tuesday, July 16, 2024 7:40 AM PDT

Current weather – Weather history – Daily summaries
Weather forecast

Present weatherMist
Temperature15.0°C (59.0°F)
Dew point15.0°C (59.0°F)
Winds Calm
Visibility4 mi. (6.4 km)
Clouds Ceiling: Overcast 400 ft. (122 m)
Altimeter29.98 in.Hg (1015 mB)
Relative humidity100 %
Density altitude168 ft. (51 m)
Remarks Fully automated report
Automated weather observing station with precipitation discriminator
Flight conditions Low Instrument Meteorological Conditions
Raw dataKHAF 191155Z AUTO 00000KT 4SM BR OVC004 15/15 A2998 RMK AO2
An error has occurred. This application may no longer respond until reloaded. Reload 🗙